Time;durP1;ratioP1;P1;durP2;ratioP2;P2;SDS_P1;SDS_P2;PMS_P1;PMS_P2;Temp;Humidity;BMP_temperature;BMP_pressure;BME280_temperature;BME280_humidity;BME280_pressure;Samples;Min_cycle;Max_cycle;Signal;HPM_P1;HPM_P2
2022/08/10 00:02:16;;;;;;;3.80;3.50;;;21.50;82.70;;;;;;6290952;22;20429;-76
2022/08/10 00:04:44;;;;;;;7.73;4.20;;;21.50;82.90;;;;;;6292052;22;20426;-76
2022/08/10 00:07:11;;;;;;;3.83;3.23;;;21.50;83.20;;;;;;6291209;22;20498;-75
2022/08/10 00:09:38;;;;;;;6.53;4.53;;;21.50;83.50;;;;;;6292396;22;20500;-74
2022/08/10 00:12:05;;;;;;;3.97;3.67;;;21.50;83.50;;;;;;6289327;22;20785;-79
2022/08/10 00:14:33;;;;;;;3.97;3.67;;;21.50;83.80;;;;;;6281375;22;20487;-76
2022/08/10 00:17:00;;;;;;;4.07;3.70;;;21.40;83.80;;;;;;6254457;22;20927;-80
2022/08/10 00:19:26;;;;;;;3.50;3.20;;;21.40;84.10;;;;;;6259300;22;20440;-79
2022/08/10 00:21:55;;;;;;;4.00;3.60;;;21.30;84.20;;;;;;6277345;22;20436;-74
2022/08/10 00:24:22;;;;;;;3.87;3.47;;;21.40;84.40;;;;;;6277521;22;20463;-80
2022/08/10 00:26:51;;;;;;;4.23;3.10;;;21.30;84.50;;;;;;6274426;22;20436;-79
2022/08/10 00:29:18;;;;;;;4.43;3.50;;;21.30;84.80;;;;;;6277649;22;20472;-75
2022/08/10 00:31:45;;;;;;;4.27;3.93;;;21.30;85.00;;;;;;6276997;22;20434;-79
2022/08/10 00:34:12;;;;;;;4.07;3.30;;;21.30;85.20;;;;;;6276042;22;20441;-79
2022/08/10 00:36:39;;;;;;;3.30;3.10;;;21.20;85.30;;;;;;6274863;22;20437;-77
2022/08/10 00:39:11;;;;;;;2.90;2.70;;;21.20;85.40;;;;;;6276375;22;20445;-75
2022/08/10 00:41:38;;;;;;;3.40;3.20;;;21.20;85.70;;;;;;6275109;22;20441;-79
2022/08/10 00:44:05;;;;;;;11.53;4.43;;;21.20;85.80;;;;;;6276336;22;20912;-79
2022/08/10 00:46:32;;;;;;;3.23;2.93;;;21.20;86.10;;;;;;6274085;22;20443;-75
2022/08/10 00:49:00;;;;;;;3.40;3.10;;;21.10;86.30;;;;;;6237871;22;20458;-81
2022/08/10 00:51:27;;;;;;;4.67;3.43;;;21.10;86.40;;;;;;6276650;22;20434;-76
2022/08/10 00:54:02;;;;;;;3.90;3.50;;;21.10;86.80;;;;;;6277331;22;20769;-79
2022/08/10 00:56:31;;;;;;;4.90;3.90;;;21.10;87.10;;;;;;6276098;22;20436;-76
2022/08/10 00:58:58;;;;;;;6.13;3.40;;;21.00;88.00;;;;;;6276474;22;20499;-82
2022/08/10 01:01:25;;;;;;;4.40;3.90;;;21.00;87.30;;;;;;6276584;22;20436;-80
2022/08/10 01:03:53;;;;;;;5.07;2.83;;;21.00;87.60;;;;;;6276544;22;20499;-75
2022/08/10 01:06:30;;;;;;;3.80;3.30;;;20.90;87.80;;;;;;6275336;22;20467;-75
2022/08/10 01:09:06;;;;;;;5.03;4.17;;;20.90;88.00;;;;;;6263742;22;20504;-80
2022/08/10 01:11:41;;;;;;;4.53;4.13;;;20.90;88.20;;;;;;6276533;22;20460;-79
2022/08/10 01:14:18;;;;;;;4.53;4.10;;;20.90;88.40;;;;;;6275677;22;20512;-75
2022/08/10 01:16:50;;;;;;;4.10;3.80;;;20.90;88.60;;;;;;6274124;22;20431;-76
2022/08/10 01:19:25;;;;;;;4.40;4.00;;;20.90;88.60;;;;;;6274417;22;20446;-79
2022/08/10 01:22:12;;;;;;;4.30;4.00;;;20.80;89.00;;;;;;6274310;22;20435;-79
2022/08/10 01:25:03;;;;;;;5.97;4.57;;;20.80;89.20;;;;;;6273155;22;20519;-80
2022/08/10 01:27:40;;;;;;;4.33;4.00;;;20.80;89.50;;;;;;6274205;22;20461;-75
2022/08/10 01:30:10;;;;;;;5.03;4.63;;;20.80;89.70;;;;;;6275497;22;20488;-76
2022/08/10 01:32:47;;;;;;;5.33;4.83;;;20.80;89.70;;;;;;6274557;22;20898;-76
2022/08/10 01:35:20;;;;;;;6.20;4.10;;;20.70;90.30;;;;;;6276261;22;20466;-80
2022/08/10 01:38:02;;;;;;;6.43;5.83;;;20.70;90.20;;;;;;6275468;22;20434;-80
2022/08/10 01:40:32;;;;;;;6.37;4.90;;;20.60;90.30;;;;;;6275480;22;20503;-76
2022/08/10 01:43:05;;;;;;;4.87;4.47;;;20.60;90.50;;;;;;6274963;22;20506;-80
2022/08/10 01:45:35;;;;;;;4.70;4.27;;;20.60;90.60;;;;;;6272907;22;20463;-75
2022/08/10 01:50:53;;;;;;;6.43;5.13;;;20.50;90.90;;;;;;6274625;22;20750;-76
2022/08/10 01:53:23;;;;;;;4.60;4.20;;;20.50;91.20;;;;;;6276184;22;20441;-76
2022/08/10 01:55:52;;;;;;;5.43;4.90;;;20.40;91.30;;;;;;6274037;22;20445;-80
2022/08/10 01:58:21;;;;;;;5.37;4.87;;;20.40;91.40;;;;;;6276266;22;20781;-76
2022/08/10 02:00:51;;;;;;;6.93;5.23;;;20.30;91.50;;;;;;6276025;22;20438;-79
2022/08/10 02:03:22;;;;;;;5.53;5.13;;;20.30;91.70;;;;;;6275636;22;20458;-80
2022/08/10 02:05:54;;;;;;;5.90;4.90;;;20.30;91.80;;;;;;6232630;22;20530;-75
2022/08/10 02:08:24;;;;;;;6.57;5.70;;;20.30;92.00;;;;;;6276937;22;20430;-78
2022/08/10 02:10:54;;;;;;;6.40;5.80;;;20.20;92.10;;;;;;6273745;22;20434;-79
2022/08/10 02:13:22;;;;;;;6.77;6.00;;;20.20;92.20;;;;;;6276478;22;20715;-79
2022/08/10 02:15:53;;;;;;;4.83;4.40;;;20.10;92.50;;;;;;6273772;22;20438;-75
2022/08/10 02:18:23;;;;;;;7.37;6.67;;;20.10;92.60;;;;;;6275169;22;20433;-74
2022/08/10 02:20:51;;;;;;;5.03;4.53;;;20.10;92.80;;;;;;6273525;22;20496;-77
2022/08/10 02:23:23;;;;;;;7.67;4.47;;;20.10;92.90;;;;;;6274885;22;20488;-75
2022/08/10 02:25:53;;;;;;;8.63;7.17;;;20.00;93.00;;;;;;6273569;22;21003;-75
2022/08/10 02:28:25;;;;;;;8.50;6.70;;;20.00;93.10;;;;;;6274671;22;20499;-74
2022/08/10 02:30:55;;;;;;;6.03;5.53;;;20.00;93.30;;;;;;6274150;22;20434;-75
2022/08/10 02:33:25;;;;;;;9.23;8.43;;;20.00;93.40;;;;;;6275891;22;20902;-79
2022/08/10 02:35:54;;;;;;;5.83;5.23;;;20.00;93.60;;;;;;6275281;22;20464;-79
2022/08/10 02:38:27;;;;;;;6.67;5.97;;;20.00;93.80;;;;;;6274672;22;20501;-75
2022/08/10 02:41:03;;;;;;;5.83;5.23;;;19.90;94.00;;;;;;6275437;22;20469;-79
2022/08/10 02:43:36;;;;;;;6.20;5.67;;;19.90;94.10;;;;;;6275102;22;20429;-76
2022/08/10 02:46:09;;;;;;;7.87;4.47;;;19.90;94.30;;;;;;6274898;22;20894;-76
2022/08/10 02:48:42;;;;;;;5.93;5.10;;;19.80;94.50;;;;;;6275903;22;20789;-80
2022/08/10 02:51:15;;;;;;;7.73;7.03;;;19.70;94.80;;;;;;6275794;22;20418;-80
2022/08/10 02:53:46;;;;;;;8.40;6.30;;;19.70;95.00;;;;;;6274792;22;20744;-75
2022/08/10 02:56:20;;;;;;;7.13;6.10;;;19.70;95.10;;;;;;6274341;22;20426;-79
2022/08/10 02:58:54;;;;;;;12.50;10.40;;;19.70;95.30;;;;;;6275550;22;20434;-74
2022/08/10 03:01:29;;;;;;;6.07;5.57;;;19.70;95.50;;;;;;6274726;22;20834;-79
2022/08/10 03:03:59;;;;;;;5.53;4.90;;;19.70;95.70;;;;;;6275846;22;20512;-77
2022/08/10 03:06:33;;;;;;;6.13;5.33;;;19.70;96.00;;;;;;6274485;22;20464;-75
2022/08/10 03:09:02;;;;;;;5.50;5.10;;;19.60;96.10;;;;;;6276718;22;20430;-76
2022/08/10 03:11:31;;;;;;;7.97;5.97;;;19.70;96.30;;;;;;6275102;22;20846;-80
2022/08/10 03:14:00;;;;;;;7.17;5.63;;;19.60;96.50;;;;;;6275735;22;20430;-79
2022/08/10 03:16:30;;;;;;;4.93;4.50;;;19.60;96.60;;;;;;6273733;22;20437;-75
2022/08/10 03:19:02;;;;;;;6.57;5.40;;;19.60;96.70;;;;;;6276442;22;20881;-75
2022/08/10 03:21:29;;;;;;;5.70;5.20;;;19.60;96.80;;;;;;6255477;22;20431;-74
2022/08/10 03:24:01;;;;;;;5.43;4.93;;;19.60;97.00;;;;;;6255702;22;20442;-75
2022/08/10 03:26:29;;;;;;;6.97;6.27;;;19.60;97.10;;;;;;6275695;22;20442;-79
2022/08/10 03:28:57;;;;;;;7.00;6.30;;;19.50;97.30;;;;;;6276490;22;20831;-78
2022/08/10 03:31:25;;;;;;;7.00;6.03;;;19.60;97.50;;;;;;6273826;22;20730;-75
2022/08/10 03:33:54;;;;;;;7.20;6.60;;;19.50;97.60;;;;;;6274589;22;20768;-74
2022/08/10 03:36:21;;;;;;;7.13;6.47;;;19.50;97.90;;;;;;6275070;22;20437;-74
2022/08/10 03:38:50;;;;;;;8.47;6.80;;;19.60;97.90;;;;;;6275579;22;20434;-75
2022/08/10 03:41:27;;;;;;;8.37;7.50;;;19.50;98.00;;;;;;6274788;22;20449;-75
2022/08/10 03:43:54;;;;;;;8.73;7.67;;;19.50;98.10;;;;;;6275448;22;20920;-75
2022/08/10 03:46:24;;;;;;;9.43;5.27;;;19.50;98.20;;;;;;6275434;22;20430;-75
2022/08/10 03:48:56;;;;;;;6.80;6.10;;;19.50;98.40;;;;;;6276049;22;20918;-79
2022/08/10 03:51:26;;;;;;;5.73;5.10;;;19.50;98.50;;;;;;6275527;22;20434;-80
2022/08/10 03:53:54;;;;;;;6.80;5.87;;;19.50;98.60;;;;;;6275667;22;20564;-80
2022/08/10 03:56:22;;;;;;;8.37;5.60;;;19.50;98.70;;;;;;6277107;22;20491;-79
2022/08/10 03:58:50;;;;;;;7.83;5.20;;;19.50;98.70;;;;;;6277692;22;20429;-76
2022/08/10 04:01:19;;;;;;;4.80;4.30;;;19.50;98.80;;;;;;6277136;22;20929;-77
2022/08/10 04:03:46;;;;;;;6.43;5.53;;;19.50;98.90;;;;;;6277715;22;20494;-79
2022/08/10 04:06:15;;;;;;;5.93;5.20;;;19.50;99.00;;;;;;6276302;22;20929;-75
2022/08/10 04:08:42;;;;;;;5.57;5.10;;;19.50;99.10;;;;;;6277993;22;20456;-79
2022/08/10 04:11:10;;;;;;;5.70;5.20;;;19.50;99.20;;;;;;6277584;22;20458;-78
2022/08/10 04:13:38;;;;;;;7.23;5.60;;;19.50;99.20;;;;;;6276809;22;20483;-79
2022/08/10 04:16:10;;;;;;;5.93;4.87;;;19.40;99.40;;;;;;6277482;22;20750;-79
2022/08/10 04:18:38;;;;;;;6.40;5.33;;;19.50;99.50;;;;;;6277191;22;20968;-78
2022/08/10 04:21:12;;;;;;;6.53;5.53;;;19.40;99.60;;;;;;6277762;22;20429;-75
2022/08/10 04:23:47;;;;;;;8.03;5.90;;;19.40;99.60;;;;;;6277471;22;20437;-75
2022/08/10 04:26:15;;;;;;;9.07;5.87;;;19.40;99.70;;;;;;6277338;22;20441;-75
2022/08/10 04:28:43;;;;;;;8.40;5.67;;;19.40;99.80;;;;;;6276628;22;20957;-80
2022/08/10 04:31:15;;;;;;;7.83;5.93;;;19.40;99.90;;;;;;6277177;22;20979;-74
2022/08/10 04:33:47;;;;;;;5.83;5.33;;;19.30;99.90;;;;;;6256704;22;20712;-79
2022/08/10 04:36:16;;;;;;;6.30;5.70;;;19.30;99.90;;;;;;6257689;22;20433;-79
2022/08/10 04:38:46;;;;;;;7.40;6.67;;;19.30;99.90;;;;;;6235044;22;20441;-75
2022/08/10 04:41:14;;;;;;;5.70;5.20;;;19.30;99.90;;;;;;6277176;22;20445;-79
2022/08/10 04:43:41;;;;;;;6.80;6.17;;;19.40;99.90;;;;;;6276923;22;20434;-76
2022/08/10 04:46:08;;;;;;;6.60;5.83;;;19.40;99.90;;;;;;6277410;22;20433;-76
2022/08/10 04:48:36;;;;;;;7.47;6.27;;;19.40;99.90;;;;;;6276802;22;20709;-76
2022/08/10 04:51:03;;;;;;;7.33;6.20;;;19.30;99.90;;;;;;6276032;22;20817;-76
2022/08/10 04:53:30;;;;;;;7.90;5.87;;;19.30;99.90;;;;;;6276015;22;20430;-74
2022/08/10 04:55:59;;;;;;;8.07;5.60;;;19.30;99.90;;;;;;6277254;22;20913;-75
2022/08/10 04:58:26;;;;;;;7.00;6.37;;;19.30;99.90;;;;;;6276224;22;20906;-75
2022/08/10 05:00:53;;;;;;;7.10;6.40;;;19.20;99.90;;;;;;6276823;22;20491;-75
2022/08/10 05:03:20;;;;;;;7.10;6.10;;;19.20;99.90;;;;;;6277690;22;20434;-80
2022/08/10 05:05:47;;;;;;;6.70;6.00;;;19.30;99.90;;;;;;6277410;22;20429;-79
2022/08/10 05:08:14;;;;;;;5.83;5.33;;;19.20;99.90;;;;;;6280665;22;20430;-78
2022/08/10 05:10:44;;;;;;;5.93;5.43;;;19.20;99.90;;;;;;6276221;22;20445;-77
2022/08/10 05:13:12;;;;;;;6.30;5.80;;;19.20;99.90;;;;;;6277885;22;20505;-75
2022/08/10 05:15:42;;;;;;;7.07;6.47;;;19.30;99.90;;;;;;6263010;22;20453;-74
2022/08/10 05:18:09;;;;;;;5.77;5.27;;;19.30;99.90;;;;;;6277267;22;20722;-75
2022/08/10 05:20:37;;;;;;;6.00;5.50;;;19.30;99.90;;;;;;6276562;22;20430;-76
2022/08/10 05:23:04;;;;;;;6.97;6.23;;;19.30;99.90;;;;;;6276887;22;20437;-75
2022/08/10 05:25:32;;;;;;;6.07;5.47;;;19.30;99.90;;;;;;6275411;22;20438;-76
2022/08/10 05:27:59;;;;;;;6.00;5.43;;;19.40;99.90;;;;;;6277304;22;20455;-80
2022/08/10 05:30:27;;;;;;;6.00;5.60;;;19.40;99.90;;;;;;6276140;22;20429;-79
2022/08/10 05:32:54;;;;;;;7.53;6.13;;;19.50;99.90;;;;;;6273586;22;20432;-81
2022/08/10 05:35:29;;;;;;;6.43;5.83;;;19.50;99.90;;;;;;6275459;22;20441;-74
2022/08/10 05:37:56;;;;;;;7.33;5.97;;;19.60;99.90;;;;;;6276007;22;20452;-75
2022/08/10 05:40:24;;;;;;;6.90;6.20;;;19.60;99.90;;;;;;6276838;22;20434;-80
2022/08/10 05:42:51;;;;;;;9.03;5.97;;;19.60;99.90;;;;;;6276070;22;20433;-76
2022/08/10 05:45:23;;;;;;;6.30;5.67;;;19.70;99.90;;;;;;6277476;22;20441;-74
2022/08/10 05:47:52;;;;;;;8.10;6.20;;;19.70;99.90;;;;;;6276081;22;20491;-79
2022/08/10 05:50:22;;;;;;;7.23;6.40;;;19.80;99.90;;;;;;6277302;22;20442;-82
2022/08/10 05:52:52;;;;;;;7.07;6.20;;;19.90;99.90;;;;;;6275970;22;20441;-75
2022/08/10 05:55:20;;;;;;;6.17;5.67;;;19.90;99.90;;;;;;6275826;22;20486;-80
2022/08/10 05:57:48;;;;;;;5.20;4.80;;;19.90;99.90;;;;;;6276567;22;20434;-78
2022/08/10 06:00:20;;;;;;;5.37;4.97;;;20.00;99.90;;;;;;6276761;22;20501;-77
2022/08/10 06:02:51;;;;;;;10.30;5.97;;;20.00;99.90;;;;;;6276425;22;20429;-75
2022/08/10 06:05:24;;;;;;;5.80;5.13;;;20.00;99.90;;;;;;6277369;22;20534;-75
2022/08/10 06:07:58;;;;;;;5.67;4.77;;;20.10;99.90;;;;;;6271064;22;20430;-80
2022/08/10 06:10:26;;;;;;;8.37;5.63;;;20.00;99.90;;;;;;6277025;22;20973;-75
2022/08/10 06:15:37;;;;;;;7.23;5.40;;;20.20;99.90;;;;;;6275353;22;20476;-80
2022/08/10 06:18:06;;;;;;;5.63;5.10;;;20.30;99.90;;;;;;6276484;22;20867;-79
2022/08/10 06:20:38;;;;;;;6.10;5.60;;;20.40;99.90;;;;;;6276202;22;20505;-75
2022/08/10 06:23:15;;;;;;;6.07;5.47;;;20.50;99.90;;;;;;6276784;22;20428;-79
2022/08/10 06:25:43;;;;;;;6.60;5.00;;;20.50;99.90;;;;;;6275909;22;20465;-76
2022/08/10 06:28:16;;;;;;;8.57;5.73;;;20.60;99.90;;;;;;6277534;22;20429;-79
2022/08/10 06:30:45;;;;;;;5.40;5.00;;;20.60;99.90;;;;;;6275303;22;20520;-75
2022/08/10 06:33:13;;;;;;;5.23;4.17;;;20.70;99.90;;;;;;6276134;22;20928;-77
2022/08/10 06:35:43;;;;;;;8.57;5.17;;;20.80;99.90;;;;;;6276138;22;20995;-75
2022/08/10 06:38:12;;;;;;;4.90;4.33;;;20.80;99.90;;;;;;6274209;22;20418;-76
2022/08/10 06:40:43;;;;;;;4.40;4.10;;;20.90;99.90;;;;;;6277616;22;20435;-79
2022/08/10 06:43:16;;;;;;;6.43;5.20;;;21.00;99.90;;;;;;6274903;22;20907;-77
2022/08/10 06:45:47;;;;;;;6.10;5.53;;;21.10;99.90;;;;;;6276716;22;22303;-80
2022/08/10 06:48:21;;;;;;;5.30;4.90;;;21.20;99.90;;;;;;6277103;22;20438;-79
2022/08/10 06:50:54;;;;;;;6.80;5.00;;;21.30;99.90;;;;;;6277689;22;20461;-80
2022/08/10 06:53:28;;;;;;;6.30;5.67;;;21.30;99.90;;;;;;6277106;22;20422;-76
2022/08/10 06:56:02;;;;;;;5.03;4.63;;;21.40;99.70;;;;;;6276618;22;20503;-81
2022/08/10 06:58:35;;;;;;;5.37;4.87;;;21.50;99.90;;;;;;6278108;22;20448;-76
2022/08/10 07:01:07;;;;;;;7.97;4.53;;;21.60;99.40;;;;;;6276199;22;20800;-80
2022/08/10 07:03:42;;;;;;;6.23;4.60;;;21.60;99.10;;;;;;6277443;22;20418;-75
2022/08/10 07:06:18;;;;;;;4.90;4.40;;;21.70;98.90;;;;;;6277668;22;20438;-75
2022/08/10 07:12:45;;;;;;;4.87;4.37;;;21.90;98.40;;;;;;6250942;22;20406;-77
2022/08/10 07:15:24;;;;;;;4.83;4.10;;;22.00;97.90;;;;;;6254755;22;20493;-75
2022/08/10 07:18:07;;;;;;;4.97;4.57;;;22.20;97.80;;;;;;6256922;22;20766;-79
2022/08/10 07:20:35;;;;;;;3.37;3.07;;;22.30;97.50;;;;;;6274981;22;20509;-79
2022/08/10 07:23:04;;;;;;;6.37;4.60;;;22.40;97.40;;;;;;6279067;22;20430;-80
2022/08/10 07:25:31;;;;;;;4.47;4.07;;;22.60;97.60;;;;;;6278005;22;20457;-80
2022/08/10 07:28:01;;;;;;;4.17;3.77;;;22.70;96.60;;;;;;6277069;22;20441;-76
2022/08/10 07:30:30;;;;;;;3.73;3.40;;;22.90;95.80;;;;;;6278439;22;20853;-80
2022/08/10 07:33:02;;;;;;;4.40;4.00;;;23.00;95.30;;;;;;6278167;22;20457;-80
2022/08/10 07:35:35;;;;;;;4.43;3.93;;;23.10;95.20;;;;;;6280111;22;20794;-79
2022/08/10 07:38:05;;;;;;;5.67;3.67;;;23.30;95.00;;;;;;6277910;22;20460;-74
2022/08/10 07:40:34;;;;;;;5.97;4.77;;;23.40;94.40;;;;;;6279406;22;20434;-79
2022/08/10 07:43:02;;;;;;;5.40;3.97;;;23.50;94.20;;;;;;6246168;22;20482;-80
2022/08/10 07:45:33;;;;;;;3.87;3.57;;;23.60;93.80;;;;;;6269654;22;20458;-80
2022/08/10 07:48:04;;;;;;;5.33;4.23;;;23.80;93.50;;;;;;6276438;22;20500;-80
2022/08/10 07:50:31;;;;;;;4.90;4.40;;;23.90;93.30;;;;;;6278558;22;20442;-79
2022/08/10 07:53:02;;;;;;;3.13;2.93;;;24.00;93.40;;;;;;6276800;22;20971;-78
2022/08/10 07:55:33;;;;;;;4.30;3.77;;;24.00;93.10;;;;;;6278424;22;20509;-79
2022/08/10 07:58:02;;;;;;;4.87;4.30;;;24.20;92.80;;;;;;6276993;22;20440;-78
2022/08/10 08:00:31;;;;;;;5.00;3.60;;;24.20;92.30;;;;;;6278369;22;20457;-79
2022/08/10 08:03:02;;;;;;;5.00;4.20;;;24.30;91.90;;;;;;6277978;22;20460;-78
2022/08/10 08:05:32;;;;;;;4.13;3.80;;;24.50;91.50;;;;;;6278596;22;20484;-75
2022/08/10 08:08:03;;;;;;;3.80;3.50;;;24.50;91.20;;;;;;6235770;22;20446;-76
2022/08/10 08:10:33;;;;;;;4.07;3.40;;;24.60;90.70;;;;;;6280015;22;20426;-79
2022/08/10 08:13:02;;;;;;;3.47;3.07;;;24.60;90.30;;;;;;6277655;22;20438;-78
2022/08/10 08:15:31;;;;;;;6.00;3.50;;;24.70;89.10;;;;;;6262058;22;20434;-79
2022/08/10 08:18:01;;;;;;;3.30;3.10;;;24.80;88.20;;;;;;6277093;22;20437;-75
2022/08/10 08:20:30;;;;;;;3.20;2.93;;;24.90;87.30;;;;;;6264021;22;20737;-75
2022/08/10 08:22:59;;;;;;;3.20;2.90;;;25.00;85.50;;;;;;6277207;22;20434;-75
2022/08/10 08:25:26;;;;;;;3.10;2.70;;;25.10;84.10;;;;;;6257521;22;20901;-79
2022/08/10 08:28:00;;;;;;;3.60;2.67;;;25.20;83.10;;;;;;6256573;22;20737;-75
2022/08/10 08:30:29;;;;;;;5.73;2.70;;;25.20;82.10;;;;;;6245142;22;20439;-80
2022/08/10 08:33:10;;;;;;;3.67;3.37;;;25.20;81.70;;;;;;6268894;22;20434;-76
2022/08/10 08:35:37;;;;;;;3.20;2.97;;;25.20;82.00;;;;;;6277240;22;20417;-75
2022/08/10 08:38:05;;;;;;;3.43;3.13;;;25.30;82.10;;;;;;6278236;22;20558;-75
2022/08/10 08:40:38;;;;;;;4.50;3.43;;;25.30;81.90;;;;;;6276773;22;20499;-79
2022/08/10 08:43:22;;;;;;;5.40;3.03;;;25.30;81.70;;;;;;6279292;22;20492;-78
2022/08/10 08:46:19;;;;;;;4.00;3.17;;;25.20;81.20;;;;;;6278495;22;20442;-79
2022/08/10 08:49:03;;;;;;;3.97;3.03;;;25.30;81.90;;;;;;6278702;22;20445;-80
2022/08/10 08:51:49;;;;;;;4.10;3.70;;;25.30;81.90;;;;;;6277330;22;20882;-76
2022/08/10 08:54:29;;;;;;;3.17;2.87;;;25.20;80.50;;;;;;6278184;22;20734;-75
2022/08/10 08:57:03;;;;;;;3.30;3.10;;;25.30;80.90;;;;;;6277272;22;20800;-80
2022/08/10 08:59:45;;;;;;;3.77;3.07;;;25.40;80.50;;;;;;6277350;22;20909;-80
2022/08/10 09:02:25;;;;;;;3.33;3.03;;;25.50;79.50;;;;;;6277297;22;20426;-75
2022/08/10 09:05:04;;;;;;;2.67;2.47;;;25.60;78.70;;;;;;6277753;22;20430;-76
2022/08/10 09:08:01;;;;;;;3.33;3.03;;;25.60;77.90;;;;;;6277034;22;20791;-76
2022/08/10 09:10:39;;;;;;;2.77;2.57;;;25.70;76.20;;;;;;6275782;22;20422;-75
2022/08/10 09:13:18;;;;;;;2.97;2.63;;;25.80;74.70;;;;;;6277650;22;20429;-79
2022/08/10 09:15:56;;;;;;;3.67;2.90;;;25.80;73.90;;;;;;6278096;22;20499;-75
2022/08/10 09:18:31;;;;;;;3.00;2.80;;;25.80;73.60;;;;;;6277738;22;20434;-76
2022/08/10 09:21:06;;;;;;;2.83;2.50;;;25.90;73.40;;;;;;6276565;22;20418;-81
2022/08/10 09:23:40;;;;;;;3.20;2.60;;;25.80;73.70;;;;;;6277281;22;20465;-76
2022/08/10 09:26:18;;;;;;;3.80;2.37;;;25.90;73.90;;;;;;6276217;22;20449;-79
2022/08/10 09:28:46;;;;;;;2.60;2.37;;;25.90;72.50;;;;;;6276761;22;20505;-80
2022/08/10 09:31:20;;;;;;;3.30;2.30;;;26.00;69.60;;;;;;6250800;22;20461;-76
2022/08/10 09:33:53;;;;;;;2.47;1.93;;;25.90;68.50;;;;;;6276907;22;20491;-76
2022/08/10 09:36:30;;;;;;;3.23;2.40;;;25.90;68.60;;;;;;6277215;22;20434;-76
2022/08/10 09:39:11;;;;;;;2.60;2.13;;;26.00;68.40;;;;;;6275155;22;20770;-81
2022/08/10 09:41:49;;;;;;;2.70;2.50;;;26.00;69.50;;;;;;6276928;22;20434;-79
2022/08/10 09:44:33;;;;;;;2.13;2.00;;;26.00;68.40;;;;;;6276465;22;20426;-81
2022/08/10 09:47:23;;;;;;;2.60;2.23;;;26.00;68.70;;;;;;6275610;22;20777;-76
2022/08/10 09:50:08;;;;;;;2.60;2.40;;;26.00;67.60;;;;;;6277150;22;20433;-80
2022/08/10 09:52:50;;;;;;;3.40;2.20;;;26.10;67.80;;;;;;6277273;22;20430;-80
2022/08/10 09:55:26;;;;;;;2.43;2.00;;;26.20;68.30;;;;;;6276896;22;20440;-76
2022/08/10 09:58:00;;;;;;;2.03;1.93;;;26.20;67.70;;;;;;6275663;22;20461;-76
2022/08/10 10:00:39;;;;;;;1.80;1.70;;;26.20;67.20;;;;;;6276548;22;20512;-76
2022/08/10 10:03:19;;;;;;;2.70;2.20;;;26.20;66.10;;;;;;6276391;22;20417;-76
2022/08/10 10:05:53;;;;;;;1.97;1.83;;;26.20;64.70;;;;;;6276328;22;20547;-76
2022/08/10 10:08:28;;;;;;;3.00;2.03;;;26.30;65.00;;;;;;6276768;22;20446;-76
2022/08/10 10:11:04;;;;;;;3.17;2.70;;;26.30;64.60;;;;;;6276127;22;20434;-76
2022/08/10 10:13:41;;;;;;;3.40;2.60;;;26.30;64.60;;;;;;6276848;22;20430;-76
2022/08/10 10:16:22;;;;;;;2.10;1.90;;;26.30;63.40;;;;;;6276417;22;20434;-76
2022/08/10 10:19:04;;;;;;;2.83;2.10;;;26.30;63.10;;;;;;6276244;22;20438;-76
2022/08/10 10:21:41;;;;;;;1.90;1.80;;;26.30;62.90;;;;;;6276603;22;20430;-76
2022/08/10 10:24:22;;;;;;;3.90;2.10;;;26.40;62.50;;;;;;6275297;22;20450;-79
2022/08/10 10:26:55;;;;;;;2.40;2.00;;;26.50;62.40;;;;;;6276846;22;20775;-80
2022/08/10 10:29:35;;;;;;;3.20;2.20;;;26.60;62.30;;;;;;6275168;22;20469;-80
2022/08/10 10:32:11;;;;;;;3.60;2.03;;;26.60;60.70;;;;;;6275847;22;20499;-80
2022/08/10 10:34:48;;;;;;;3.53;1.93;;;26.60;59.20;;;;;;6277834;22;20437;-80
2022/08/10 10:37:18;;;;;;;1.80;1.70;;;26.60;58.90;;;;;;6274897;22;20430;-80
2022/08/10 10:39:49;;;;;;;2.00;1.90;;;26.70;57.70;;;;;;6275734;22;20461;-80
2022/08/10 10:42:24;;;;;;;2.13;1.77;;;26.70;57.80;;;;;;6275846;22;20432;-80
2022/08/10 10:45:04;;;;;;;2.07;1.90;;;26.70;57.30;;;;;;6276313;22;20909;-81
2022/08/10 10:47:46;;;;;;;3.83;2.30;;;26.80;58.10;;;;;;6277000;22;20441;-80
2022/08/10 10:50:19;;;;;;;2.27;2.10;;;26.80;58.50;;;;;;6276575;22;20495;-80
2022/08/10 10:52:57;;;;;;;2.47;2.27;;;26.90;58.50;;;;;;6276554;22;20484;-81
2022/08/10 10:55:33;;;;;;;2.33;2.13;;;26.90;58.40;;;;;;6275402;22;20434;-80
2022/08/10 10:58:09;;;;;;;2.40;1.93;;;26.90;58.50;;;;;;6276236;22;20429;-80
2022/08/10 11:00:43;;;;;;;2.63;2.10;;;27.00;58.80;;;;;;6275768;22;20422;-80
2022/08/10 11:03:36;;;;;;;1.90;1.80;;;26.90;58.90;;;;;;6276967;22;20434;-80
2022/08/10 11:06:17;;;;;;;2.67;2.30;;;26.90;59.20;;;;;;6264930;22;20437;-79
2022/08/10 11:08:49;;;;;;;1.60;1.50;;;27.00;58.60;;;;;;6279683;22;20430;-80
2022/08/10 11:11:22;;;;;;;2.30;2.10;;;27.00;58.40;;;;;;6278585;22;20460;-79
2022/08/10 11:14:01;;;;;;;2.60;2.40;;;27.00;58.00;;;;;;6276728;22;20430;-79
2022/08/10 11:16:35;;;;;;;2.30;2.20;;;27.00;58.00;;;;;;6275726;22;21221;-79
2022/08/10 11:19:15;;;;;;;2.23;2.13;;;27.00;58.90;;;;;;6276058;22;20503;-81
2022/08/10 11:21:55;;;;;;;2.23;2.10;;;27.10;58.50;;;;;;6276508;22;20509;-79
2022/08/10 11:24:32;;;;;;;2.60;2.40;;;27.10;58.10;;;;;;6277498;22;20433;-76
2022/08/10 11:27:08;;;;;;;2.70;2.50;;;27.10;58.30;;;;;;6276907;22;20453;-75
2022/08/10 11:29:39;;;;;;;4.90;2.33;;;27.10;58.50;;;;;;6262469;22;20425;-75
2022/08/10 11:32:16;;;;;;;2.03;1.90;;;27.20;56.70;;;;;;6275904;22;20456;-75
2022/08/10 11:34:54;;;;;;;2.60;2.40;;;27.20;56.00;;;;;;6275768;22;20869;-75
2022/08/10 11:37:35;;;;;;;2.60;2.10;;;27.20;54.90;;;;;;6274954;22;20464;-76
2022/08/10 11:40:15;;;;;;;2.33;2.13;;;27.20;55.00;;;;;;6276306;22;20496;-76
2022/08/10 11:42:52;;;;;;;2.17;1.97;;;27.30;55.20;;;;;;6275285;22;20781;-75
2022/08/10 11:45:25;;;;;;;3.10;1.80;;;27.30;55.20;;;;;;6276210;22;20434;-75
2022/08/10 11:47:56;;;;;;;2.10;1.90;;;27.40;55.60;;;;;;6276396;22;20442;-76
2022/08/10 11:50:28;;;;;;;3.10;2.07;;;27.40;55.40;;;;;;6276186;22;20430;-74
2022/08/10 11:53:04;;;;;;;3.23;2.10;;;27.40;55.40;;;;;;6275522;22;20479;-75
2022/08/10 11:55:33;;;;;;;2.40;2.00;;;27.40;55.40;;;;;;6275429;22;20732;-76
2022/08/10 11:59:55;;;;;;;2.40;2.27;;;27.50;55.20;;;;;;6275935;22;20769;-75
2022/08/10 12:00:57;;;;;;;2.83;2.03;;;27.50;54.80;;;;;;6275467;22;20437;-76
2022/08/10 12:03:25;;;;;;;2.10;2.00;;;27.50;53.20;;;;;;6276002;22;20426;-75
2022/08/10 12:05:54;;;;;;;2.10;2.00;;;27.50;53.20;;;;;;6275348;22;20445;-76
2022/08/10 12:08:25;;;;;;;2.70;1.63;;;27.60;53.80;;;;;;6277290;22;20445;-76
2022/08/10 12:10:54;;;;;;;3.23;1.97;;;27.60;53.90;;;;;;6277456;22;20487;-75
2022/08/10 12:13:26;;;;;;;2.00;1.80;;;27.60;53.70;;;;;;6278797;22;20461;-75
2022/08/10 12:16:03;;;;;;;1.90;1.80;;;27.60;53.90;;;;;;6276656;22;20426;-76
2022/08/10 12:21:45;;;;;;;2.67;2.10;;;27.70;53.90;;;;;;6196916;22;20444;-78
2022/08/10 12:24:24;;;;;;;2.90;2.70;;;27.70;52.90;;;;;;6272593;22;20444;-79
2022/08/10 12:26:59;;;;;;;2.07;1.97;;;27.70;53.30;;;;;;6278873;22;20441;-79
2022/08/10 12:29:32;;;;;;;3.97;1.97;;;27.70;53.80;;;;;;6278095;22;20426;-80
2022/08/10 12:32:05;;;;;;;1.80;1.70;;;27.80;53.80;;;;;;6278265;22;20466;-81
2022/08/10 12:34:39;;;;;;;2.70;2.50;;;27.80;53.50;;;;;;6278245;22;20450;-80
2022/08/10 12:37:14;;;;;;;2.10;1.90;;;27.80;53.60;;;;;;6280369;22;20535;-81
2022/08/10 12:39:55;;;;;;;4.23;2.50;;;27.70;53.70;;;;;;6279502;22;20471;-75
2022/08/10 12:42:30;;;;;;;2.53;2.40;;;27.80;54.00;;;;;;6276528;22;20434;-76
2022/08/10 12:45:03;;;;;;;2.57;2.20;;;27.80;53.90;;;;;;6278436;22;20436;-77
2022/08/10 12:47:41;;;;;;;2.67;2.47;;;27.80;54.10;;;;;;6277976;22;20454;-76
2022/08/10 12:50:15;;;;;;;2.00;1.87;;;27.80;53.90;;;;;;6278587;22;20444;-77
2022/08/10 12:52:50;;;;;;;2.67;1.83;;;27.90;53.70;;;;;;6281515;22;20421;-76
2022/08/10 12:55:20;;;;;;;2.03;1.80;;;27.90;53.40;;;;;;6288685;22;20453;-81
2022/08/10 12:57:51;;;;;;;4.90;1.90;;;27.90;52.80;;;;;;6295889;22;20444;-81
2022/08/10 13:00:19;;;;;;;3.17;2.97;;;27.90;53.00;;;;;;6298512;22;20461;-80
2022/08/10 13:02:48;;;;;;;2.13;1.93;;;27.90;53.20;;;;;;6285187;22;20405;-78
2022/08/10 13:05:15;;;;;;;2.30;1.70;;;27.90;53.20;;;;;;6292905;22;20410;-78
2022/08/10 13:07:45;;;;;;;2.00;1.80;;;27.90;52.60;;;;;;6299211;22;20434;-80
2022/08/10 13:10:15;;;;;;;2.30;2.10;;;27.90;52.30;;;;;;6298339;22;20504;-79
2022/08/10 13:12:45;;;;;;;2.77;2.07;;;27.90;52.00;;;;;;6299331;22;20454;-80
2022/08/10 13:15:23;;;;;;;3.73;1.93;;;27.90;51.90;;;;;;6298753;22;20426;-80
2022/08/10 13:17:53;;;;;;;2.80;1.80;;;27.90;51.90;;;;;;6299244;22;20522;-80
2022/08/10 13:20:26;;;;;;;1.90;1.80;;;27.90;51.80;;;;;;6299109;22;20464;-78
2022/08/10 13:22:58;;;;;;;2.30;2.10;;;27.90;51.80;;;;;;6299230;22;20422;-79
2022/08/10 13:25:31;;;;;;;2.60;2.40;;;27.80;52.00;;;;;;6296384;22;20440;-81